createdAt,value
2018-07-14T00:03:23.247Z,15.50
2018-07-14T00:09:28.905Z,15.40
2018-07-14T00:15:34.605Z,15.40
2018-07-14T00:21:40.261Z,15.20
2018-07-14T00:27:46.234Z,15.10
2018-07-14T00:33:52.376Z,15.00
2018-07-14T00:39:58.409Z,14.90
2018-07-14T00:46:04.236Z,14.90
2018-07-14T00:52:10.005Z,14.90
2018-07-14T00:58:15.705Z,14.90
2018-07-14T01:04:21.356Z,14.80
2018-07-14T01:10:27.030Z,14.70
2018-07-14T01:16:32.804Z,14.60
2018-07-14T01:22:38.571Z,14.50
2018-07-14T01:28:44.315Z,14.40
2018-07-14T01:34:49.987Z,14.20
2018-07-14T01:40:55.917Z,14.10
2018-07-14T01:47:01.658Z,14.00
2018-07-14T01:53:07.341Z,13.90
2018-07-14T01:59:13.185Z,13.90
2018-07-14T02:05:19.155Z,13.80
2018-07-14T02:11:25.061Z,13.80
2018-07-14T02:17:30.776Z,13.80
2018-07-14T02:23:36.468Z,13.80
2018-07-14T02:29:42.238Z,13.90
2018-07-14T02:35:48.024Z,13.90
2018-07-14T02:41:55.349Z,13.90
2018-07-14T02:48:01.067Z,13.90
2018-07-14T02:54:06.785Z,14.00
2018-07-14T03:00:12.419Z,14.10
2018-07-14T03:06:18.069Z,14.20
2018-07-14T03:12:23.689Z,14.40
2018-07-14T03:18:29.332Z,14.50
2018-07-14T03:24:35.054Z,14.50
2018-07-14T03:30:41.208Z,14.50
2018-07-14T03:36:47.017Z,14.50
2018-07-14T03:42:54.472Z,14.70
2018-07-14T03:49:00.170Z,14.80
2018-07-14T03:55:06.501Z,14.90
2018-07-14T04:01:12.152Z,14.90
2018-07-14T04:07:17.876Z,14.90
2018-07-14T04:13:23.760Z,14.90
2018-07-14T04:19:29.397Z,15.00
2018-07-14T04:25:41.401Z,15.00
2018-07-14T04:31:47.225Z,15.00
2018-07-14T04:37:53.510Z,15.10
2018-07-14T04:43:59.370Z,15.10
2018-07-14T04:50:05.333Z,15.10
2018-07-14T04:56:10.957Z,15.10
2018-07-14T05:02:16.616Z,15.10
2018-07-14T05:08:22.353Z,15.10
2018-07-14T05:14:28.466Z,15.10
2018-07-14T05:20:34.149Z,15.00
2018-07-14T05:26:39.775Z,15.10
2018-07-14T05:32:45.684Z,15.20
2018-07-14T05:38:51.701Z,15.40
2018-07-14T05:44:57.715Z,15.40
2018-07-14T05:51:03.531Z,15.60
2018-07-14T05:57:09.406Z,15.60
2018-07-14T06:03:15.192Z,15.70
2018-07-14T06:09:21.683Z,15.80
2018-07-14T06:15:27.349Z,16.10
2018-07-14T06:21:33.106Z,16.30
2018-07-14T06:27:38.881Z,16.50
2018-07-14T06:33:44.671Z,16.40
2018-07-14T06:39:51.308Z,16.30
2018-07-14T06:45:57.187Z,16.50
2018-07-14T06:52:02.838Z,16.80
2018-07-14T06:58:08.585Z,17.20
2018-07-14T07:04:14.448Z,17.50
2018-07-14T07:10:20.346Z,17.70
2018-07-14T07:16:26.349Z,17.60
2018-07-14T07:22:32.395Z,17.60
2018-07-14T07:28:38.044Z,18.00
2018-07-14T07:34:44.043Z,17.60
2018-07-14T07:40:49.808Z,17.80
2018-07-14T07:46:55.728Z,18.40
2018-07-14T07:53:01.614Z,18.80
2018-07-14T07:59:07.423Z,19.00
2018-07-14T08:05:13.281Z,19.30
2018-07-14T08:11:19.657Z,19.80
2018-07-14T08:17:26.101Z,20.40
2018-07-14T08:23:31.997Z,20.40
2018-07-14T08:29:37.666Z,20.60
2018-07-14T08:35:43.355Z,20.50
2018-07-14T08:41:49.279Z,20.80
2018-07-14T08:47:56.020Z,20.70
2018-07-14T08:54:01.678Z,21.20
2018-07-14T09:00:07.544Z,21.60
2018-07-14T09:06:13.600Z,21.60
2018-07-14T09:12:20.223Z,22.00
2018-07-14T09:18:26.389Z,22.40
2018-07-14T09:24:32.065Z,22.90
2018-07-14T09:30:37.755Z,23.40
2018-07-14T09:36:43.470Z,23.60
2018-07-14T09:42:49.144Z,23.90
2018-07-14T09:48:56.382Z,24.50
2018-07-14T09:55:02.220Z,24.60
2018-07-14T10:01:10.174Z,24.60
2018-07-14T10:07:15.798Z,25.10
2018-07-14T10:13:21.470Z,25.50
2018-07-14T10:19:27.173Z,25.90
2018-07-14T10:25:32.950Z,26.30
2018-07-14T10:31:38.781Z,26.20
2018-07-14T10:37:44.590Z,26.50
2018-07-14T10:43:50.671Z,26.70
2018-07-14T10:49:56.436Z,27.20
2018-07-14T10:56:02.438Z,27.80
2018-07-14T11:02:08.280Z,27.90
2018-07-14T11:08:13.978Z,28.60
2018-07-14T11:14:19.731Z,29.40
2018-07-14T11:26:31.838Z,30.20
2018-07-14T11:32:37.511Z,30.00
2018-07-14T11:38:43.209Z,30.10
2018-07-14T11:44:48.855Z,29.90
2018-07-14T11:50:54.914Z,30.80
2018-07-14T11:57:00.612Z,31.50
2018-07-14T12:03:06.342Z,30.90
2018-07-14T12:09:11.988Z,30.40
2018-07-14T12:15:17.672Z,30.10
2018-07-14T12:21:24.863Z,30.90
2018-07-14T12:27:30.618Z,30.20
2018-07-14T12:33:36.352Z,29.40
2018-07-14T12:39:42.053Z,29.90
2018-07-14T12:45:47.799Z,29.60
2018-07-14T12:51:53.686Z,31.40
2018-07-14T12:57:59.427Z,32.20
2018-07-14T13:04:05.340Z,32.10
2018-07-14T13:10:11.121Z,31.50
2018-07-14T13:16:16.907Z,30.40
2018-07-14T13:22:23.737Z,31.40
2018-07-14T13:28:29.402Z,32.00
2018-07-14T13:34:35.264Z,31.90
2018-07-14T13:40:41.068Z,31.90
2018-07-14T13:46:47.015Z,31.90
2018-07-14T13:52:54.630Z,32.20
2018-07-14T13:59:00.571Z,32.80
2018-07-14T14:05:06.535Z,32.40
2018-07-14T14:11:12.280Z,33.90
2018-07-14T14:17:18.035Z,32.40
2018-07-14T14:23:24.678Z,30.30
2018-07-14T14:29:30.700Z,29.90
2018-07-14T14:35:36.617Z,31.00
2018-07-14T14:41:42.328Z,31.20
2018-07-14T14:47:48.150Z,31.80
2018-07-14T14:53:54.434Z,32.70
2018-07-14T15:00:00.144Z,31.50
2018-07-14T15:06:06.031Z,31.60
2018-07-14T15:12:11.861Z,31.50
2018-07-14T15:18:17.667Z,32.10
2018-07-14T15:24:25.547Z,32.90
2018-07-14T15:30:31.558Z,32.60
2018-07-14T15:36:37.312Z,32.30
2018-07-14T15:42:43.544Z,32.60
2018-07-14T15:48:49.195Z,31.90
2018-07-14T15:54:55.047Z,31.40
2018-07-14T16:01:00.725Z,31.40
2018-07-14T16:07:06.575Z,31.20
2018-07-14T16:13:12.248Z,31.40
2018-07-14T16:19:17.931Z,31.40
2018-07-14T16:25:24.268Z,31.00
2018-07-14T16:31:30.112Z,30.80
2018-07-14T16:37:36.196Z,30.90
2018-07-14T16:43:42.232Z,31.30
2018-07-14T16:49:47.847Z,31.80
2018-07-14T16:55:54.551Z,33.00
2018-07-14T17:02:00.413Z,33.00
2018-07-14T17:08:06.209Z,32.80
2018-07-14T17:14:12.477Z,29.90
2018-07-14T17:20:17.983Z,28.50
2018-07-14T17:26:25.687Z,28.60
2018-07-14T17:32:31.365Z,28.50
2018-07-14T17:38:37.537Z,27.60
2018-07-14T17:44:43.414Z,27.70
2018-07-14T17:50:49.051Z,28.60
2018-07-14T17:56:55.422Z,29.30
2018-07-14T18:03:01.406Z,29.50
2018-07-14T18:09:09.639Z,29.50
2018-07-14T18:15:15.454Z,28.50
2018-07-14T18:21:22.142Z,28.50
2018-07-14T18:27:27.979Z,28.10
2018-07-14T18:33:33.872Z,28.20
2018-07-14T18:39:39.721Z,28.00
2018-07-14T18:45:45.339Z,27.70
2018-07-14T18:51:52.815Z,27.20
2018-07-14T18:57:58.568Z,26.80
2018-07-14T19:04:04.335Z,25.80
2018-07-14T19:10:10.256Z,24.70
2018-07-14T19:16:15.993Z,23.90
2018-07-14T19:22:22.164Z,23.30
2018-07-14T19:28:28.006Z,22.80
2018-07-14T19:34:33.632Z,22.40
2018-07-14T19:40:39.370Z,22.00
2018-07-14T19:46:45.355Z,21.70
2018-07-14T19:52:51.509Z,21.50
2018-07-14T19:58:57.137Z,21.30
2018-07-14T20:05:02.788Z,21.10
2018-07-14T20:11:08.813Z,21.00
2018-07-14T20:17:15.378Z,20.90
2018-07-14T20:23:22.812Z,20.70
2018-07-14T20:29:28.524Z,20.60
2018-07-14T20:35:34.218Z,20.50
2018-07-14T20:41:39.934Z,20.30
2018-07-14T20:47:45.733Z,19.80
2018-07-14T20:53:52.504Z,19.50
2018-07-14T20:59:58.181Z,19.40
2018-07-14T21:06:03.922Z,19.30
2018-07-14T21:12:09.799Z,19.10
2018-07-14T21:18:15.606Z,18.80
2018-07-14T21:24:21.782Z,18.70
2018-07-14T21:30:27.696Z,18.60
2018-07-14T21:36:33.341Z,18.60
2018-07-14T21:42:39.058Z,18.50
2018-07-14T21:48:44.780Z,18.40
2018-07-14T21:54:50.792Z,18.40
2018-07-14T22:01:05.945Z,18.20
2018-07-14T22:07:11.675Z,18.10
2018-07-14T22:13:17.294Z,17.90
2018-07-14T22:19:23.804Z,17.60
2018-07-14T22:25:29.557Z,17.40
2018-07-14T22:31:35.232Z,17.30
2018-07-14T22:37:41.049Z,17.00
2018-07-14T22:43:46.730Z,16.80
2018-07-14T22:49:53.041Z,16.60
2018-07-14T22:55:58.874Z,16.40
2018-07-14T23:02:04.578Z,16.30
2018-07-14T23:08:10.294Z,16.10
2018-07-14T23:14:16.071Z,16.00
2018-07-14T23:20:21.877Z,15.80
2018-07-14T23:26:27.622Z,15.80
2018-07-14T23:32:33.451Z,15.70
2018-07-14T23:38:39.320Z,15.50
2018-07-14T23:44:44.953Z,15.40
2018-07-14T23:50:50.777Z,15.30
2018-07-14T23:56:56.793Z,15.10
